sensor_id;sensor_type;location;lat;lon;timestamp;pressure;altitude;pressure_sealevel;temperature;humidity
68525;BME280;55524;51.380;13.372;2024-02-21T00:00:42;101228.25;;;7.05;100.00
68525;BME280;55524;51.380;13.372;2024-02-21T00:03:08;101221.16;;;7.10;100.00
68525;BME280;55524;51.380;13.372;2024-02-21T00:05:35;101220.34;;;7.05;100.00
68525;BME280;55524;51.380;13.372;2024-02-21T00:08:03;101213.31;;;7.07;100.00
68525;BME280;55524;51.380;13.372;2024-02-21T00:10:29;101213.28;;;7.10;100.00
68525;BME280;55524;51.380;13.372;2024-02-21T00:12:58;101201.06;;;7.06;100.00
68525;BME280;55524;51.380;13.372;2024-02-21T00:15:25;101211.56;;;7.09;100.00
68525;BME280;55524;51.380;13.372;2024-02-21T00:17:52;101203.66;;;7.08;100.00
68525;BME280;55524;51.380;13.372;2024-02-21T00:20:19;101201.94;;;7.07;100.00
68525;BME280;55524;51.380;13.372;2024-02-21T00:22:48;101195.78;;;7.09;100.00
68525;BME280;55524;51.380;13.372;2024-02-21T00:25:14;101196.69;;;7.07;100.00
68525;BME280;55524;51.380;13.372;2024-02-21T00:27:44;101190.59;;;7.05;100.00
68525;BME280;55524;51.380;13.372;2024-02-21T00:30:14;101194.03;;;7.10;100.00
68525;BME280;55524;51.380;13.372;2024-02-21T00:32:40;101195.84;;;7.05;100.00
68525;BME280;55524;51.380;13.372;2024-02-21T00:35:07;101188.81;;;7.05;100.00
68525;BME280;55524;51.380;13.372;2024-02-21T00:37:36;101183.66;;;6.98;100.00
68525;BME280;55524;51.380;13.372;2024-02-21T00:40:03;101184.53;;;6.95;100.00
68525;BME280;55524;51.380;13.372;2024-02-21T00:42:29;101174.91;;;6.96;100.00
68525;BME280;55524;51.380;13.372;2024-02-21T00:44:56;101168.81;;;6.90;100.00
68525;BME280;55524;51.380;13.372;2024-02-21T00:47:22;101160.06;;;6.93;100.00
68525;BME280;55524;51.380;13.372;2024-02-21T00:49:48;101168.91;;;6.83;100.00
68525;BME280;55524;51.380;13.372;2024-02-21T00:52:15;101168.13;;;6.75;100.00
68525;BME280;55524;51.380;13.372;2024-02-21T00:54:41;101154.09;;;6.73;100.00
68525;BME280;55524;51.380;13.372;2024-02-21T00:57:12;101156.72;;;6.73;100.00
68525;BME280;55524;51.380;13.372;2024-02-21T00:59:38;101156.75;;;6.71;100.00
68525;BME280;55524;51.380;13.372;2024-02-21T01:02:04;101156.88;;;6.59;100.00
68525;BME280;55524;51.380;13.372;2024-02-21T01:04:31;101156.94;;;6.54;100.00
68525;BME280;55524;51.380;13.372;2024-02-21T01:06:57;101150.81;;;6.49;100.00
68525;BME280;55524;51.380;13.372;2024-02-21T01:09:24;101152.66;;;6.46;100.00
68525;BME280;55524;51.380;13.372;2024-02-21T01:11:50;101153.56;;;6.38;100.00
68525;BME280;55524;51.380;13.372;2024-02-21T01:14:17;101145.69;;;6.37;100.00
68525;BME280;55524;51.380;13.372;2024-02-21T01:16:43;101144.81;;;6.39;100.00
68525;BME280;55524;51.380;13.372;2024-02-21T01:19:09;101143.06;;;6.37;100.00
68525;BME280;55524;51.380;13.372;2024-02-21T01:21:36;101139.56;;;6.39;100.00
68525;BME280;55524;51.380;13.372;2024-02-21T01:24:02;101144.84;;;6.38;100.00
68525;BME280;55524;51.380;13.372;2024-02-21T01:26:29;101138.69;;;6.39;100.00
68525;BME280;55524;51.380;13.372;2024-02-21T01:28:55;101134.28;;;6.43;100.00
68525;BME280;55524;51.380;13.372;2024-02-21T01:31:21;101129.88;;;6.46;100.00
68525;BME280;55524;51.380;13.372;2024-02-21T01:33:48;101130.69;;;6.54;100.00
68525;BME280;55524;51.380;13.372;2024-02-21T01:36:14;101126.31;;;6.53;100.00
68525;BME280;55524;51.380;13.372;2024-02-21T01:38:40;101117.53;;;6.54;100.00
68525;BME280;55524;51.380;13.372;2024-02-21T01:41:07;101119.22;;;6.61;100.00
68525;BME280;55524;51.380;13.372;2024-02-21T01:43:33;101112.22;;;6.60;100.00
68525;BME280;55524;51.380;13.372;2024-02-21T01:46:00;101107.81;;;6.61;100.00
68525;BME280;55524;51.380;13.372;2024-02-21T01:48:30;101109.59;;;6.62;100.00
68525;BME280;55524;51.380;13.372;2024-02-21T01:50:57;101116.53;;;6.68;100.00
68525;BME280;55524;51.380;13.372;2024-02-21T01:53:27;101106.03;;;6.68;100.00
68525;BME280;55524;51.380;13.372;2024-02-21T01:55:55;101103.41;;;6.64;100.00
68525;BME280;55524;51.380;13.372;2024-02-21T01:58:22;101092.84;;;6.74;100.00
68525;BME280;55524;51.380;13.372;2024-02-21T02:00:51;101091.03;;;6.76;100.00
68525;BME280;55524;51.380;13.372;2024-02-21T02:03:17;101093.75;;;6.68;100.00
68525;BME280;55524;51.380;13.372;2024-02-21T02:05:45;101092.88;;;6.68;100.00
68525;BME280;55524;51.380;13.372;2024-02-21T02:08:13;101084.09;;;6.72;100.00
68525;BME280;55524;51.380;13.372;2024-02-21T02:10:40;101092.84;;;6.72;100.00
68525;BME280;55524;51.380;13.372;2024-02-21T02:13:07;101080.56;;;6.73;100.00
68525;BME280;55524;51.380;13.372;2024-02-21T02:15:47;101076.19;;;6.75;100.00
68525;BME280;55524;51.380;13.372;2024-02-21T02:18:15;101073.47;;;6.82;100.00
68525;BME280;55524;51.380;13.372;2024-02-21T02:20:42;101070.78;;;6.87;100.00
68525;BME280;55524;51.380;13.372;2024-02-21T02:23:11;101064.66;;;6.85;100.00
68525;BME280;55524;51.380;13.372;2024-02-21T02:25:38;101060.28;;;6.87;100.00
68525;BME280;55524;51.380;13.372;2024-02-21T02:28:06;101069.88;;;6.88;100.00
68525;BME280;55524;51.380;13.372;2024-02-21T02:30:33;101066.34;;;6.92;100.00
68525;BME280;55524;51.380;13.372;2024-02-21T02:33:01;101067.25;;;6.88;100.00
68525;BME280;55524;51.380;13.372;2024-02-21T02:35:27;101065.50;;;6.88;100.00
68525;BME280;55524;51.380;13.372;2024-02-21T02:37:54;101068.16;;;6.87;100.00
68525;BME280;55524;51.380;13.372;2024-02-21T02:40:20;101067.25;;;6.88;100.00
68525;BME280;55524;51.380;13.372;2024-02-21T02:42:46;101057.63;;;6.88;100.00
68525;BME280;55524;51.380;13.372;2024-02-21T02:45:15;101055.81;;;6.92;100.00
68525;BME280;55524;51.380;13.372;2024-02-21T02:53:37;101045.41;;;6.86;100.00
68525;BME280;55524;51.380;13.372;2024-02-21T02:56:04;101041.81;;;6.93;100.00
68525;BME280;55524;51.380;13.372;2024-02-21T02:58:30;101035.72;;;6.89;100.00
68525;BME280;55524;51.380;13.372;2024-02-21T03:00:57;101033.97;;;6.90;100.00
68525;BME280;55524;51.380;13.372;2024-02-21T03:03:23;101039.25;;;6.87;100.00
68525;BME280;55524;51.380;13.372;2024-02-21T03:05:49;101040.19;;;6.83;100.00
68525;BME280;55524;51.380;13.372;2024-02-21T03:08:16;101039.38;;;6.78;100.00
68525;BME280;55524;51.380;13.372;2024-02-21T03:10:42;101034.03;;;6.84;100.00
68525;BME280;55524;51.380;13.372;2024-02-21T03:13:08;101038.38;;;6.85;100.00
68525;BME280;55524;51.380;13.372;2024-02-21T03:15:35;101045.47;;;6.80;100.00
68525;BME280;55524;51.380;13.372;2024-02-21T03:18:01;101048.19;;;6.72;100.00
68525;BME280;55524;51.380;13.372;2024-02-21T03:20:27;101041.28;;;6.63;100.00
68525;BME280;55524;51.380;13.372;2024-02-21T03:22:54;101026.47;;;6.58;100.00
68525;BME280;55524;51.380;13.372;2024-02-21T03:25:20;101022.09;;;6.57;100.00
68525;BME280;55524;51.380;13.372;2024-02-21T03:27:46;101020.41;;;6.53;100.00
68525;BME280;55524;51.380;13.372;2024-02-21T03:30:13;101014.34;;;6.48;100.00
68525;BME280;55524;51.380;13.372;2024-02-21T03:32:39;101016.13;;;6.44;100.00
68525;BME280;55524;51.380;13.372;2024-02-21T03:35:06;101017.03;;;6.42;100.00
68525;BME280;55524;51.380;13.372;2024-02-21T03:37:32;101013.44;;;6.49;100.00
68525;BME280;55524;51.380;13.372;2024-02-21T03:40:01;101004.75;;;6.44;100.00
68525;BME280;55524;51.380;13.372;2024-02-21T03:42:29;101003.81;;;6.49;100.00
68525;BME280;55524;51.380;13.372;2024-02-21T03:44:57;101002.94;;;6.50;100.00
68525;BME280;55524;51.380;13.372;2024-02-21T03:47:23;101008.19;;;6.49;100.00
68525;BME280;55524;51.380;13.372;2024-02-21T03:49:50;101012.56;;;6.50;100.00
68525;BME280;55524;51.380;13.372;2024-02-21T03:52:17;101009.06;;;6.51;100.00
68525;BME280;55524;51.380;13.372;2024-02-21T03:54:43;101009.88;;;6.53;100.00
68525;BME280;55524;51.380;13.372;2024-02-21T03:57:10;101016.06;;;6.50;100.00
68525;BME280;55524;51.380;13.372;2024-02-21T03:59:37;101011.72;;;6.48;100.00
68525;BME280;55524;51.380;13.372;2024-02-21T04:02:06;101016.91;;;6.54;100.00
68525;BME280;55524;51.380;13.372;2024-02-21T04:04:38;101012.50;;;6.56;100.00
68525;BME280;55524;51.380;13.372;2024-02-21T04:07:05;101012.50;;;6.53;100.00
68525;BME280;55524;51.380;13.372;2024-02-21T04:09:33;101019.50;;;6.55;100.00
68525;BME280;55524;51.380;13.372;2024-02-21T04:12:01;101016.06;;;6.50;100.00
68525;BME280;55524;51.380;13.372;2024-02-21T04:14:28;101019.56;;;6.51;100.00
68525;BME280;55524;51.380;13.372;2024-02-21T04:16:54;101012.50;;;6.56;100.00
68525;BME280;55524;51.380;13.372;2024-02-21T04:19:21;101011.66;;;6.54;100.00
68525;BME280;55524;51.380;13.372;2024-02-21T04:21:50;101009.88;;;6.56;100.00
68525;BME280;55524;51.380;13.372;2024-02-21T04:24:16;101015.13;;;6.57;100.00
68525;BME280;55524;51.380;13.372;2024-02-21T04:26:42;101008.13;;;6.55;100.00
68525;BME280;55524;51.380;13.372;2024-02-21T04:29:09;101019.50;;;6.55;100.00
68525;BME280;55524;51.380;13.372;2024-02-21T04:31:36;101002.84;;;6.58;100.00
68525;BME280;55524;51.380;13.372;2024-02-21T04:34:02;100994.03;;;6.60;100.00
68525;BME280;55524;51.380;13.372;2024-02-21T04:36:29;100987.00;;;6.65;100.00
68525;BME280;55524;51.380;13.372;2024-02-21T04:38:55;100981.72;;;6.67;100.00
68525;BME280;55524;51.380;13.372;2024-02-21T04:41:22;100980.00;;;6.64;100.00
68525;BME280;55524;51.380;13.372;2024-02-21T04:43:48;100988.72;;;6.70;100.00
68525;BME280;55524;51.380;13.372;2024-02-21T04:46:14;100992.25;;;6.64;100.00
68525;BME280;55524;51.380;13.372;2024-02-21T04:48:41;100989.63;;;6.65;100.00
68525;BME280;55524;51.380;13.372;2024-02-21T04:51:08;100987.81;;;6.71;100.00
68525;BME280;55524;51.380;13.372;2024-02-21T04:53:34;100985.19;;;6.69;100.00
68525;BME280;55524;51.380;13.372;2024-02-21T04:56:00;100984.25;;;6.75;100.00
68525;BME280;55524;51.380;13.372;2024-02-21T04:58:30;100971.09;;;6.78;100.00
68525;BME280;55524;51.380;13.372;2024-02-21T05:00:57;100977.28;;;6.74;100.00
68525;BME280;55524;51.380;13.372;2024-02-21T05:03:24;100971.97;;;6.75;100.00
68525;BME280;55524;51.380;13.372;2024-02-21T05:05:50;100973.81;;;6.69;100.00
68525;BME280;55524;51.380;13.372;2024-02-21T05:08:16;100972.03;;;6.71;100.00
68525;BME280;55524;51.380;13.372;2024-02-21T05:10:43;100965.97;;;6.67;100.00
68525;BME280;55524;51.380;13.372;2024-02-21T05:13:09;100967.66;;;6.71;100.00
68525;BME280;55524;51.380;13.372;2024-02-21T05:15:39;100960.66;;;6.73;100.00
68525;BME280;55524;51.380;13.372;2024-02-21T05:18:05;100959.72;;;6.77;100.00
68525;BME280;55524;51.380;13.372;2024-02-21T05:20:32;100948.38;;;6.74;100.00
68525;BME280;55524;51.380;13.372;2024-02-21T05:22:58;100943.97;;;6.77;100.00
68525;BME280;55524;51.380;13.372;2024-02-21T05:25:24;100948.34;;;6.75;100.00
68525;BME280;55524;51.380;13.372;2024-02-21T05:27:53;100945.75;;;6.74;100.00
68525;BME280;55524;51.380;13.372;2024-02-21T05:30:21;100947.50;;;6.72;100.00
68525;BME280;55524;51.380;13.372;2024-02-21T05:32:48;100940.53;;;6.69;100.00
68525;BME280;55524;51.380;13.372;2024-02-21T05:35:14;100930.94;;;6.70;100.00
68525;BME280;55524;51.380;13.372;2024-02-21T05:37:41;100928.22;;;6.73;100.00
68525;BME280;55524;51.380;13.372;2024-02-21T05:40:08;100930.00;;;6.74;100.00
68525;BME280;55524;51.380;13.372;2024-02-21T05:42:34;100914.22;;;6.72;100.00
68525;BME280;55524;51.380;13.372;2024-02-21T05:45:01;100909.97;;;6.63;100.00
68525;BME280;55524;51.380;13.372;2024-02-21T05:47:27;100912.53;;;6.68;100.00
68525;BME280;55524;51.380;13.372;2024-02-21T05:49:54;100901.09;;;6.72;100.00
68525;BME280;55524;51.380;13.372;2024-02-21T05:52:29;100903.75;;;6.71;100.00
68525;BME280;55524;51.380;13.372;2024-02-21T05:54:56;100897.56;;;6.75;100.00
68525;BME280;55524;51.380;13.372;2024-02-21T06:00:58;100904.41;;;6.85;100.00
68525;BME280;55524;51.380;13.372;2024-02-21T06:03:29;100903.56;;;6.86;100.00
68525;BME280;55524;51.380;13.372;2024-02-21T06:05:55;100907.03;;;6.86;100.00
68525;BME280;55524;51.380;13.372;2024-02-21T06:08:22;100901.72;;;6.91;100.00
68525;BME280;55524;51.380;13.372;2024-02-21T06:10:48;100898.22;;;6.90;100.00
68525;BME280;55524;51.380;13.372;2024-02-21T06:13:18;100901.72;;;6.91;100.00
68525;BME280;55524;51.380;13.372;2024-02-21T06:15:47;100894.66;;;6.95;100.00
68525;BME280;55524;51.380;13.372;2024-02-21T06:18:14;100902.56;;;6.92;100.00
68525;BME280;55524;51.380;13.372;2024-02-21T06:21:09;100910.47;;;6.93;100.00
68525;BME280;55524;51.380;13.372;2024-02-21T06:23:49;100905.19;;;6.92;100.00
68525;BME280;55524;51.380;13.372;2024-02-21T06:30:13;100905.19;;;6.93;100.00
68525;BME280;55524;51.380;13.372;2024-02-21T06:32:46;100904.31;;;6.93;100.00
68525;BME280;55524;51.380;13.372;2024-02-21T06:49:04;100923.69;;;6.85;100.00
68525;BME280;55524;51.380;13.372;2024-02-21T06:51:31;100918.44;;;6.85;100.00
68525;BME280;55524;51.380;13.372;2024-02-21T06:54:03;100925.41;;;6.88;100.00
68525;BME280;55524;51.380;13.372;2024-02-21T06:56:29;100901.72;;;6.91;100.00
68525;BME280;55524;51.380;13.372;2024-02-21T06:59:02;100912.19;;;6.94;100.00
68525;BME280;55524;51.380;13.372;2024-02-21T07:01:38;100901.63;;;6.97;100.00
68525;BME280;55524;51.380;13.372;2024-02-21T07:04:23;100905.19;;;6.93;100.00
68525;BME280;55524;51.380;13.372;2024-02-21T07:06:53;100917.44;;;6.94;100.00
68525;BME280;55524;51.380;13.372;2024-02-21T07:09:32;100919.09;;;7.01;100.00
68525;BME280;55524;51.380;13.372;2024-02-21T07:15:32;100925.91;;;7.11;100.00
68525;BME280;55524;51.380;13.372;2024-02-21T07:18:48;100932.88;;;7.15;100.00
68525;BME280;55524;51.380;13.372;2024-02-21T07:24:54;100922.31;;;7.19;100.00
68525;BME280;55524;51.380;13.372;2024-02-21T07:33:40;100927.28;;;7.35;100.00
68525;BME280;55524;51.380;13.372;2024-02-21T07:36:30;100921.13;;;7.38;100.00
68525;BME280;55524;51.380;13.372;2024-02-21T07:39:19;100918.53;;;7.36;100.00
68525;BME280;55524;51.380;13.372;2024-02-21T07:46:11;100918.47;;;7.41;100.00
68525;BME280;55524;51.380;13.372;2024-02-21T07:48:46;100917.44;;;7.50;100.00
68525;BME280;55524;51.380;13.372;2024-02-21T07:51:20;100904.19;;;7.54;100.00
68525;BME280;55524;51.380;13.372;2024-02-21T07:53:50;100911.13;;;7.58;100.00
68525;BME280;55524;51.380;13.372;2024-02-21T07:56:16;100895.34;;;7.58;100.00
68525;BME280;55524;51.380;13.372;2024-02-21T07:58:52;100904.00;;;7.65;100.00
68525;BME280;55524;51.380;13.372;2024-02-21T08:01:44;100905.88;;;7.58;100.00
68525;BME280;55524;51.380;13.372;2024-02-21T08:04:22;100916.53;;;7.52;100.00
68525;BME280;55524;51.380;13.372;2024-02-21T08:07:02;100905.91;;;7.55;100.00
68525;BME280;55524;51.380;13.372;2024-02-21T08:12:26;100914.72;;;7.54;100.00
68525;BME280;55524;51.380;13.372;2024-02-21T08:14:58;100906.75;;;7.59;100.00
68525;BME280;55524;51.380;13.372;2024-02-21T08:17:27;100910.22;;;7.59;100.00
68525;BME280;55524;51.380;13.372;2024-02-21T08:19:56;100912.00;;;7.59;100.00
68525;BME280;55524;51.380;13.372;2024-02-21T08:22:29;100907.69;;;7.55;100.00
68525;BME280;55524;51.380;13.372;2024-02-21T08:24:58;100899.78;;;7.55;100.00
68525;BME280;55524;51.380;13.372;2024-02-21T08:27:27;100895.41;;;7.57;100.00
68525;BME280;55524;51.380;13.372;2024-02-21T08:30:02;100889.19;;;7.61;100.00
68525;BME280;55524;51.380;13.372;2024-02-21T08:32:41;100880.44;;;7.60;100.00
68525;BME280;55524;51.380;13.372;2024-02-21T08:35:11;100888.19;;;7.67;100.00
68525;BME280;55524;51.380;13.372;2024-02-21T08:38:00;100882.06;;;7.66;100.00
68525;BME280;55524;51.380;13.372;2024-02-21T08:40:26;100872.34;;;7.70;100.00
68525;BME280;55524;51.380;13.372;2024-02-21T08:43:10;100861.84;;;7.70;100.00
68525;BME280;55524;51.380;13.372;2024-02-21T08:48:57;100855.34;;;7.87;100.00
68525;BME280;55524;51.380;13.372;2024-02-21T08:51:37;100849.91;;;7.97;100.00
68525;BME280;55524;51.380;13.372;2024-02-21T08:54:45;100847.00;;;8.10;100.00
68525;BME280;55524;51.380;13.372;2024-02-21T08:57:34;100831.78;;;8.23;100.00
68525;BME280;55524;51.380;13.372;2024-02-21T09:00:16;100840.50;;;8.27;100.00
68525;BME280;55524;51.380;13.372;2024-02-21T09:02:53;100842.94;;;8.36;100.00
68525;BME280;55524;51.380;13.372;2024-02-21T09:05:30;100843.88;;;8.33;100.00
68525;BME280;55524;51.380;13.372;2024-02-21T09:07:59;100848.97;;;8.43;100.00
68525;BME280;55524;51.380;13.372;2024-02-21T09:17:31;100841.91;;;8.82;100.00
68525;BME280;55524;51.380;13.372;2024-02-21T09:19:57;100836.22;;;9.00;100.00
68525;BME280;55524;51.380;13.372;2024-02-21T09:22:28;100827.44;;;9.34;100.00
68525;BME280;55524;51.380;13.372;2024-02-21T09:24:54;100815.00;;;9.72;100.00
68525;BME280;55524;51.380;13.372;2024-02-21T09:27:21;100798.28;;;10.02;100.00
68525;BME280;55524;51.380;13.372;2024-02-21T09:29:52;100800.75;;;10.08;100.00
68525;BME280;55524;51.380;13.372;2024-02-21T09:32:30;100794.31;;;9.88;100.00
68525;BME280;55524;51.380;13.372;2024-02-21T09:35:04;100774.06;;;10.18;100.00
68525;BME280;55524;51.380;13.372;2024-02-21T09:37:45;100770.97;;;10.61;100.00
68525;BME280;55524;51.380;13.372;2024-02-21T09:40:21;100763.44;;;10.19;100.00
68525;BME280;55524;51.380;13.372;2024-02-21T09:43:02;100800.59;;;9.83;100.00
68525;BME280;55524;51.380;13.372;2024-02-21T09:45:36;100808.00;;;9.71;100.00
68525;BME280;55524;51.380;13.372;2024-02-21T09:48:42;100809.38;;;9.84;100.00
68525;BME280;55524;51.380;13.372;2024-02-21T09:51:30;100814.78;;;9.79;100.00
68525;BME280;55524;51.380;13.372;2024-02-21T09:57:42;100802.47;;;10.09;100.00
68525;BME280;55524;51.380;13.372;2024-02-21T10:00:11;100798.09;;;10.08;100.00
68525;BME280;55524;51.380;13.372;2024-02-21T10:02:44;100798.50;;;10.24;100.00
68525;BME280;55524;51.380;13.372;2024-02-21T10:05:28;100791.63;;;10.48;100.00
68525;BME280;55524;51.380;13.372;2024-02-21T10:08:13;100795.06;;;10.22;100.00
68525;BME280;55524;51.380;13.372;2024-02-21T10:10:44;100805.28;;;10.34;100.00
68525;BME280;55524;51.380;13.372;2024-02-21T10:13:34;100799.56;;;10.19;100.00
68525;BME280;55524;51.380;13.372;2024-02-21T10:16:19;100801.88;;;9.70;100.00
68525;BME280;55524;51.380;13.372;2024-02-21T10:18:54;100812.56;;;9.64;100.00
68525;BME280;55524;51.380;13.372;2024-02-21T10:21:57;100799.94;;;9.44;100.00
68525;BME280;55524;51.380;13.372;2024-02-21T10:24:31;100807.25;;;9.33;100.00
68525;BME280;55524;51.380;13.372;2024-02-21T10:27:02;100808.16;;;9.32;100.00
68525;BME280;55524;51.380;13.372;2024-02-21T10:29:34;100810.94;;;9.26;100.00
68525;BME280;55524;51.380;13.372;2024-02-21T10:32:16;100819.91;;;9.53;100.00
68525;BME280;55524;51.380;13.372;2024-02-21T10:35:03;100815.72;;;9.77;100.00
68525;BME280;55524;51.380;13.372;2024-02-21T10:37:41;100784.47;;;9.94;100.00
68525;BME280;55524;51.380;13.372;2024-02-21T10:40:26;100790.22;;;10.07;100.00
68525;BME280;55524;51.380;13.372;2024-02-21T10:43:02;100774.22;;;10.43;100.00
68525;BME280;55524;51.380;13.372;2024-02-21T10:45:46;100761.88;;;10.70;100.00
68525;BME280;55524;51.380;13.372;2024-02-21T10:48:25;100749.69;;;10.66;100.00
68525;BME280;55524;51.380;13.372;2024-02-21T10:51:17;100742.91;;;11.10;100.00
68525;BME280;55524;51.380;13.372;2024-02-21T10:56:39;100722.78;;;10.79;100.00
68525;BME280;55524;51.380;13.372;2024-02-21T10:59:09;100724.66;;;10.76;100.00
68525;BME280;55524;51.380;13.372;2024-02-21T11:01:38;100717.84;;;10.95;100.00
68525;BME280;55524;51.380;13.372;2024-02-21T11:04:27;100707.28;;;10.69;100.00
68525;BME280;55524;51.380;13.372;2024-02-21T11:06:53;100712.63;;;10.67;100.00
68525;BME280;55524;51.380;13.372;2024-02-21T11:09:30;100703.63;;;10.46;100.00
68525;BME280;55524;51.380;13.372;2024-02-21T11:12:01;100711.22;;;10.29;100.00
68525;BME280;55524;51.380;13.372;2024-02-21T11:14:29;100713.84;;;10.30;100.00
68525;BME280;55524;51.380;13.372;2024-02-21T11:17:02;100704.88;;;10.61;100.00
68525;BME280;55524;51.380;13.372;2024-02-21T11:19:30;100695.22;;;10.87;100.00
68525;BME280;55524;51.380;13.372;2024-02-21T11:21:58;100686.69;;;10.78;100.00
68525;BME280;55524;51.380;13.372;2024-02-21T11:24:32;100693.16;;;10.43;100.00
68525;BME280;55524;51.380;13.372;2024-02-21T11:27:19;100703.41;;;10.26;100.00
68525;BME280;55524;51.380;13.372;2024-02-21T11:29:57;100707.94;;;10.21;100.00
68525;BME280;55524;51.380;13.372;2024-02-21T11:32:26;100712.97;;;10.00;100.00
68525;BME280;55524;51.380;13.372;2024-02-21T11:37:21;100720.13;;;9.97;100.00
68525;BME280;55524;51.380;13.372;2024-02-21T11:39:54;100714.94;;;9.94;100.00
68525;BME280;55524;51.380;13.372;2024-02-21T11:42:20;100708.13;;;9.87;100.00
68525;BME280;55524;51.380;13.372;2024-02-21T11:44:47;100697.59;;;9.85;100.00
68525;BME280;55524;51.380;13.372;2024-02-21T11:47:14;100700.88;;;9.93;100.00
68525;BME280;55524;51.380;13.372;2024-02-21T11:49:46;100686.41;;;10.06;100.00
68525;BME280;55524;51.380;13.372;2024-02-21T11:52:13;100661.81;;;10.32;100.00
68525;BME280;55524;51.380;13.372;2024-02-21T11:54:41;100637.44;;;10.23;100.00
68525;BME280;55524;51.380;13.372;2024-02-21T11:57:08;100631.41;;;10.19;100.00
68525;BME280;55524;51.380;13.372;2024-02-21T11:59:35;100630.78;;;10.11;100.00
68525;BME280;55524;51.380;13.372;2024-02-21T12:02:01;100628.09;;;10.13;100.00
68525;BME280;55524;51.380;13.372;2024-02-21T12:04:31;100630.81;;;10.09;100.00
68525;BME280;55524;51.380;13.372;2024-02-21T12:07:00;100629.78;;;10.15;100.00
68525;BME280;55524;51.380;13.372;2024-02-21T12:09:29;100618.59;;;10.35;100.00
68525;BME280;55524;51.380;13.372;2024-02-21T12:12:05;100618.22;;;10.46;100.00
68525;BME280;55524;51.380;13.372;2024-02-21T12:14:33;100607.16;;;10.59;100.00
68525;BME280;55524;51.380;13.372;2024-02-21T12:17:01;100591.47;;;10.55;100.00
68525;BME280;55524;51.380;13.372;2024-02-21T12:19:30;100594.19;;;10.53;100.00
68525;BME280;55524;51.380;13.372;2024-02-21T12:21:58;100594.75;;;10.37;100.00
68525;BME280;55524;51.380;13.372;2024-02-21T12:24:28;100576.22;;;10.63;100.00
68525;BME280;55524;51.380;13.372;2024-02-21T12:26:55;100572.91;;;10.56;100.00
68525;BME280;55524;51.380;13.372;2024-02-21T12:29:23;100566.16;;;10.49;100.00
68525;BME280;55524;51.380;13.372;2024-02-21T12:31:53;100560.47;;;10.35;100.00
68525;BME280;55524;51.380;13.372;2024-02-21T12:34:23;100572.44;;;10.45;100.00
68525;BME280;55524;51.380;13.372;2024-02-21T12:36:50;100563.97;;;10.61;100.00
68525;BME280;55524;51.380;13.372;2024-02-21T12:39:17;100556.19;;;10.56;100.00
68525;BME280;55524;51.380;13.372;2024-02-21T12:41:44;100555.09;;;10.38;100.00
68525;BME280;55524;51.380;13.372;2024-02-21T12:44:11;100547.69;;;10.48;100.00
68525;BME280;55524;51.380;13.372;2024-02-21T12:46:38;100547.69;;;10.48;100.00
68525;BME280;55524;51.380;13.372;2024-02-21T12:49:10;100546.75;;;10.74;100.00
68525;BME280;55524;51.380;13.372;2024-02-21T12:51:39;100535.94;;;11.03;100.00
68525;BME280;55524;51.380;13.372;2024-02-21T12:54:16;100514.97;;;11.22;100.00
68525;BME280;55524;51.380;13.372;2024-02-21T12:56:47;100509.28;;;11.10;100.00
68525;BME280;55524;51.380;13.372;2024-02-21T12:59:14;100503.13;;;11.09;100.00
68525;BME280;55524;51.380;13.372;2024-02-21T13:01:40;100506.81;;;11.05;100.00
68525;BME280;55524;51.380;13.372;2024-02-21T13:04:07;100502.97;;;10.90;100.00
68525;BME280;55524;51.380;13.372;2024-02-21T13:06:33;100499.47;;;10.66;100.00
68525;BME280;55524;51.380;13.372;2024-02-21T13:08:59;100526.97;;;10.84;100.00
68525;BME280;55524;51.380;13.372;2024-02-21T13:11:29;100500.19;;;11.17;100.00
68525;BME280;55524;51.380;13.372;2024-02-21T13:13:57;100516.19;;;10.90;100.00
68525;BME280;55524;51.380;13.372;2024-02-21T13:16:23;100494.28;;;11.10;100.00
68525;BME280;55524;51.380;13.372;2024-02-21T13:18:50;100490.59;;;11.36;100.00
68525;BME280;55524;51.380;13.372;2024-02-21T13:21:19;100465.72;;;11.62;100.00
68525;BME280;55524;51.380;13.372;2024-02-21T13:23:45;100458.81;;;11.80;100.00
68525;BME280;55524;51.380;13.372;2024-02-21T13:26:12;100447.28;;;11.81;100.00
68525;BME280;55524;51.380;13.372;2024-02-21T13:28:38;100439.72;;;11.72;100.00
68525;BME280;55524;51.380;13.372;2024-02-21T13:31:05;100426.03;;;11.84;100.00
68525;BME280;55524;51.380;13.372;2024-02-21T13:33:31;100417.63;;;12.34;100.00
68525;BME280;55524;51.380;13.372;2024-02-21T13:35:58;100394.72;;;12.52;100.00
68525;BME280;55524;51.380;13.372;2024-02-21T13:38:24;100374.78;;;12.24;98.20
68525;BME280;55524;51.380;13.372;2024-02-21T13:40:51;100388.50;;;12.14;100.00
68525;BME280;55524;51.380;13.372;2024-02-21T13:43:20;100392.47;;;12.03;100.00
68525;BME280;55524;51.380;13.372;2024-02-21T13:45:57;100383.00;;;12.18;100.00
68525;BME280;55524;51.380;13.372;2024-02-21T13:48:26;100375.50;;;12.28;100.00
68525;BME280;55524;51.380;13.372;2024-02-21T13:50:53;100377.44;;;12.24;100.00
68525;BME280;55524;51.380;13.372;2024-02-21T13:53:19;100358.09;;;12.41;99.61
68525;BME280;55524;51.380;13.372;2024-02-21T13:55:46;100356.28;;;12.04;100.00
68525;BME280;55524;51.380;13.372;2024-02-21T13:58:13;100375.59;;;11.65;100.00
68525;BME280;55524;51.380;13.372;2024-02-21T14:00:40;100370.78;;;11.95;100.00